Long Valley, New Jersey
Current Conditions -  °F | °C
As of 9:53 PM on Friday 21 Nov 2014 (Local Time) from KSMQ Reporting Station
Clear Clear  
Wind Chill: 19°   Ceiling: Unl
Heat Index: 19°   Visibility: 10mi
Dew Point: 12°   Wind: 0mph
Humidity: 74%   Direction: NA
Pressure: 30.49"   Gusts: NA
Location:  40.79°N, 74.77°W
Report Text: KSMQ 220253Z AUTO 00000KT 10SM CLR M07/M11 A3049 RMK AO2 SLP328 T10721111 53009
Loading
Personal Weather Stations






























Interactive Weather Map New forecast layout! Learn more

10-Day Weather Forecast

Advertisements
Track Severe Weather on mobile